createdAt,value
2023-04-27T00:00:13.480Z,101711.00
2023-04-27T00:02:43.979Z,101714.47
2023-04-27T00:05:13.398Z,101715.50
2023-04-27T00:07:42.716Z,101717.63
2023-04-27T00:10:12.345Z,101713.59
2023-04-27T00:12:42.482Z,101707.13
2023-04-27T00:15:12.551Z,101710.34
2023-04-27T00:17:43.726Z,101709.13
2023-04-27T00:20:13.259Z,101708.81
2023-04-27T00:22:42.549Z,101707.03
2023-04-27T00:25:11.846Z,101707.78
2023-04-27T00:27:41.221Z,101705.66
2023-04-27T00:30:12.173Z,101699.28
2023-04-27T00:32:42.297Z,101702.84
2023-04-27T00:35:13.318Z,101697.69
2023-04-27T00:37:44.306Z,101696.09
2023-04-27T00:40:13.895Z,101699.03
2023-04-27T00:42:42.947Z,101705.25
2023-04-27T00:45:13.491Z,101705.41
2023-04-27T00:47:44.012Z,101712.28
2023-04-27T00:50:15.474Z,101713.75
2023-04-27T00:52:44.812Z,101708.38
2023-04-27T00:55:13.866Z,101713.16
2023-04-27T00:57:42.919Z,101709.41
2023-04-27T01:00:13.973Z,101708.81
2023-04-27T01:02:43.556Z,101713.63
2023-04-27T01:05:14.085Z,101725.63
2023-04-27T01:07:43.665Z,101723.09
2023-04-27T01:10:12.860Z,101722.31
2023-04-27T01:12:42.103Z,101729.72
2023-04-27T01:15:12.662Z,101725.94
2023-04-27T01:17:43.049Z,101724.47
2023-04-27T01:20:14.467Z,101727.16
2023-04-27T01:22:45.653Z,101729.81
2023-04-27T01:25:16.146Z,101733.97
2023-04-27T01:27:45.764Z,101727.78
2023-04-27T01:30:15.589Z,101732.41
2023-04-27T01:32:44.775Z,101737.50
2023-04-27T01:35:13.819Z,101736.56
2023-04-27T01:37:43.004Z,101746.34
2023-04-27T01:40:13.601Z,101753.16
2023-04-27T01:42:44.161Z,101763.97
2023-04-27T01:45:13.636Z,101761.06
2023-04-27T01:47:42.843Z,101752.09
2023-04-27T01:50:12.508Z,101752.75
2023-04-27T01:52:41.785Z,101752.22
2023-04-27T01:55:11.154Z,101745.53
2023-04-27T01:57:40.595Z,101744.06
2023-04-27T02:00:12.496Z,101753.09
2023-04-27T02:02:53.527Z,101760.25
2023-04-27T02:05:22.865Z,101759.03
2023-04-27T02:07:52.109Z,101779.00
2023-04-27T02:10:22.194Z,101771.44
2023-04-27T02:12:51.336Z,101768.97
2023-04-27T02:15:21.970Z,101776.69
2023-04-27T02:17:51.247Z,101777.97
2023-04-27T02:20:20.380Z,101766.44
2023-04-27T02:22:49.460Z,101763.84
2023-04-27T02:25:20.110Z,101762.81
2023-04-27T02:27:49.252Z,101764.22
2023-04-27T02:30:18.854Z,101765.88
2023-04-27T02:32:49.820Z,101767.84
2023-04-27T02:35:18.952Z,101755.34
2023-04-27T02:37:48.085Z,101757.66
2023-04-27T02:40:17.806Z,101755.84
2023-04-27T02:42:46.952Z,101761.25
2023-04-27T02:45:16.014Z,101758.34
2023-04-27T02:47:45.089Z,101761.44
2023-04-27T02:50:17.416Z,101765.50
2023-04-27T02:52:46.441Z,101763.84
2023-04-27T02:55:15.544Z,101757.81
2023-04-27T02:57:44.709Z,101758.13
2023-04-27T03:00:14.947Z,101763.38
2023-04-27T03:02:44.460Z,101755.66
2023-04-27T03:05:13.897Z,101768.84
2023-04-27T03:07:44.553Z,101762.03
2023-04-27T03:10:13.629Z,101764.63
2023-04-27T03:12:42.714Z,101770.53
2023-04-27T03:15:12.351Z,101779.31
2023-04-27T03:17:41.420Z,101786.44
2023-04-27T03:20:12.243Z,101780.13
2023-04-27T03:22:41.324Z,101768.44
2023-04-27T03:25:12.165Z,101776.97
2023-04-27T03:27:42.310Z,101769.59
2023-04-27T03:30:12.728Z,101773.47
2023-04-27T03:32:41.835Z,101778.28
2023-04-27T03:35:11.230Z,101771.72
2023-04-27T03:37:40.847Z,101793.28
2023-04-27T03:40:12.957Z,101784.47
2023-04-27T03:42:42.092Z,101786.53
2023-04-27T03:45:12.414Z,101783.34
2023-04-27T03:47:41.990Z,101778.94
2023-04-27T03:50:11.712Z,101782.47
2023-04-27T03:52:40.776Z,101792.22
2023-04-27T03:55:10.701Z,101793.91
2023-04-27T03:57:44.516Z,101793.34
2023-04-27T04:00:17.255Z,101789.38
2023-04-27T04:02:46.615Z,101791.66
2023-04-27T04:05:16.091Z,101795.41
2023-04-27T04:07:45.288Z,101795.84
2023-04-27T04:10:14.913Z,101799.28
2023-04-27T04:12:45.391Z,101800.75
2023-04-27T04:15:14.568Z,101800.84
2023-04-27T04:17:44.003Z,101808.53
2023-04-27T04:20:13.795Z,101812.28
2023-04-27T04:22:43.183Z,101802.78
2023-04-27T04:25:12.884Z,101807.81
2023-04-27T04:27:42.064Z,101811.09
2023-04-27T04:30:13.511Z,101817.28
2023-04-27T04:32:42.689Z,101821.22
2023-04-27T04:35:12.157Z,101818.13
2023-04-27T04:37:41.256Z,101815.28
2023-04-27T04:40:11.549Z,101811.53
2023-04-27T04:42:42.064Z,101803.81
2023-04-27T04:45:14.022Z,101805.88
2023-04-27T04:47:43.198Z,101799.63
2023-04-27T04:50:14.151Z,101803.41
2023-04-27T04:52:43.332Z,101805.47
2023-04-27T04:55:12.497Z,101811.13
2023-04-27T04:57:41.562Z,101804.88
2023-04-27T05:00:13.688Z,101812.53
2023-04-27T05:02:43.102Z,101815.78
2023-04-27T05:05:12.332Z,101819.28
2023-04-27T05:07:41.741Z,101819.72
2023-04-27T05:10:11.140Z,101821.31
2023-04-27T05:12:40.256Z,101815.47
2023-04-27T05:15:10.128Z,101818.28
2023-04-27T05:17:40.669Z,101819.31
2023-04-27T05:20:10.623Z,101819.25
2023-04-27T05:22:39.801Z,101808.47
2023-04-27T05:25:09.955Z,101808.00
2023-04-27T05:27:39.061Z,101810.50
2023-04-27T05:30:09.557Z,101806.88
2023-04-27T05:32:40.108Z,101811.44
2023-04-27T05:35:09.822Z,101806.41
2023-04-27T05:37:38.964Z,101811.28
2023-04-27T05:40:10.256Z,101807.34
2023-04-27T05:42:39.445Z,101793.81
2023-04-27T05:45:09.838Z,101795.56
2023-04-27T05:47:40.399Z,101796.44
2023-04-27T05:50:10.286Z,101788.59
2023-04-27T05:52:39.488Z,101793.28
2023-04-27T05:55:09.412Z,101794.47
2023-04-27T05:57:38.560Z,101797.75
2023-04-27T06:00:10.942Z,101793.16
2023-04-27T06:02:44.275Z,101794.59
2023-04-27T06:05:13.533Z,101805.78
2023-04-27T06:07:43.788Z,101798.97
2023-04-27T06:10:12.937Z,101807.25
2023-04-27T06:12:43.926Z,101806.53
2023-04-27T06:15:14.223Z,101814.31
2023-04-27T06:17:45.848Z,101819.50
2023-04-27T06:20:15.768Z,101820.69
2023-04-27T06:22:46.752Z,101821.56
2023-04-27T06:25:16.050Z,101811.81
2023-04-27T06:27:45.232Z,101813.25
2023-04-27T06:30:14.802Z,101815.03
2023-04-27T06:32:45.246Z,101814.09
2023-04-27T06:35:14.570Z,101808.78
2023-04-27T06:37:44.659Z,101813.88
2023-04-27T06:40:14.509Z,101813.75
2023-04-27T06:42:44.087Z,101803.72
2023-04-27T06:45:13.753Z,101804.13
2023-04-27T06:47:44.263Z,101816.63
2023-04-27T06:50:13.460Z,101800.97
2023-04-27T06:52:42.734Z,101806.88
2023-04-27T06:55:11.984Z,101797.78
2023-04-27T06:57:41.270Z,101810.06
2023-04-27T07:00:13.310Z,101800.63
2023-04-27T07:02:43.966Z,101795.50
2023-04-27T07:05:13.246Z,101810.53
2023-04-27T07:07:43.506Z,101813.88
2023-04-27T07:10:12.881Z,101828.84
2023-04-27T07:12:43.338Z,101832.34
2023-04-27T07:15:12.847Z,101837.91
2023-04-27T07:17:41.930Z,101829.69
2023-04-27T07:20:14.217Z,101832.72
2023-04-27T07:22:43.352Z,101839.94
2023-04-27T07:25:12.414Z,101835.56
2023-04-27T07:27:41.516Z,101837.84
2023-04-27T07:30:13.674Z,101836.31
2023-04-27T07:32:42.877Z,101839.81
2023-04-27T07:35:13.461Z,101832.31
2023-04-27T07:37:44.094Z,101841.47
2023-04-27T07:40:16.945Z,101834.97
2023-04-27T07:42:47.115Z,101830.34
2023-04-27T07:45:17.401Z,101836.22
2023-04-27T07:47:46.677Z,101836.09
2023-04-27T07:50:22.030Z,101825.50
2023-04-27T07:52:51.061Z,101827.09
2023-04-27T07:55:21.475Z,101838.75
2023-04-27T07:57:50.586Z,101835.91
2023-04-27T08:00:20.331Z,101840.25
2023-04-27T08:02:49.703Z,101850.97
2023-04-27T08:05:21.288Z,101847.94
2023-04-27T08:07:53.476Z,101847.47
2023-04-27T08:10:23.963Z,101845.78
2023-04-27T08:12:53.120Z,101844.09
2023-04-27T08:15:22.274Z,101840.22
2023-04-27T08:17:51.412Z,101831.03
2023-04-27T08:20:22.022Z,101835.88
2023-04-27T08:22:52.898Z,101832.16
2023-04-27T08:25:22.165Z,101834.38
2023-04-27T08:27:51.205Z,101842.56
2023-04-27T08:30:21.225Z,101835.78
2023-04-27T08:32:50.360Z,101844.56
2023-04-27T08:35:20.978Z,101848.09
2023-04-27T08:37:50.174Z,101847.19
2023-04-27T08:40:19.829Z,101855.66
2023-04-27T08:42:57.422Z,101845.91
2023-04-27T08:45:27.645Z,101849.38
2023-04-27T08:47:57.072Z,101849.53
2023-04-27T08:50:27.881Z,101841.50
2023-04-27T08:52:56.933Z,101827.88
2023-04-27T08:55:26.394Z,101817.38
2023-04-27T08:57:56.787Z,101817.09
2023-04-27T09:00:27.185Z,101819.75
2023-04-27T09:02:56.431Z,101814.16
2023-04-27T09:05:27.613Z,101807.53
2023-04-27T09:08:00.793Z,101802.69
2023-04-27T09:10:30.321Z,101811.00
2023-04-27T09:13:01.043Z,101803.38
2023-04-27T09:15:30.445Z,101805.16
2023-04-27T09:17:59.972Z,101810.88
2023-04-27T09:20:30.520Z,101816.63
2023-04-27T09:22:59.605Z,101823.56
2023-04-27T09:25:30.050Z,101823.53
2023-04-27T09:28:00.732Z,101826.22
2023-04-27T09:30:30.946Z,101817.75
2023-04-27T09:33:02.181Z,101815.13
2023-04-27T09:35:34.126Z,101811.22
2023-04-27T09:38:03.367Z,101805.88
2023-04-27T09:40:33.552Z,101799.03
2023-04-27T09:43:02.917Z,101799.25
2023-04-27T09:45:34.292Z,101797.66
2023-04-27T09:48:05.303Z,101793.16
2023-04-27T09:50:38.448Z,101803.31
2023-04-27T09:53:10.142Z,101792.41
2023-04-27T09:55:43.544Z,101800.91
2023-04-27T09:58:39.399Z,101795.81
2023-04-27T10:01:18.069Z,101801.94
2023-04-27T10:04:03.884Z,101799.31
2023-04-27T10:07:00.252Z,101806.66
2023-04-27T10:09:35.356Z,101809.44
2023-04-27T10:12:16.915Z,101803.22
2023-04-27T10:14:56.077Z,101798.63
2023-04-27T10:17:33.579Z,101792.00
2023-04-27T10:20:04.458Z,101803.13
2023-04-27T10:22:42.199Z,101800.94
2023-04-27T10:25:30.220Z,101793.97
2023-04-27T10:28:01.108Z,101801.31
2023-04-27T10:30:35.188Z,101810.28
2023-04-27T10:33:07.471Z,101799.22
2023-04-27T10:35:38.394Z,101810.63
2023-04-27T10:38:10.145Z,101799.09
2023-04-27T10:40:40.494Z,101808.56
2023-04-27T10:43:11.205Z,101788.78
2023-04-27T10:45:40.564Z,101803.94
2023-04-27T10:48:10.035Z,101811.56
2023-04-27T10:50:40.432Z,101822.69
2023-04-27T10:53:10.870Z,101821.63
2023-04-27T10:55:40.026Z,101824.66
2023-04-27T10:58:09.113Z,101832.34
2023-04-27T11:00:43.844Z,101829.66
2023-04-27T11:03:15.883Z,101828.94
2023-04-27T11:05:45.979Z,101827.47
2023-04-27T11:08:18.617Z,101840.13
2023-04-27T11:10:50.433Z,101843.91
2023-04-27T11:13:21.759Z,101837.44
2023-04-27T11:15:54.093Z,101846.09
2023-04-27T11:18:25.565Z,101843.88
2023-04-27T11:20:56.346Z,101839.59
2023-04-27T11:23:28.901Z,101845.97
2023-04-27T11:25:58.430Z,101840.53
2023-04-27T11:28:27.465Z,101840.69
2023-04-27T11:31:00.684Z,101830.22
2023-04-27T11:33:30.063Z,101837.06
2023-04-27T11:35:59.707Z,101820.06
2023-04-27T11:38:35.930Z,101819.94
2023-04-27T11:41:07.447Z,101839.38
2023-04-27T11:43:38.185Z,101840.88
2023-04-27T11:46:08.171Z,101837.41
2023-04-27T11:48:38.666Z,101827.75
2023-04-27T11:51:13.255Z,101833.69
2023-04-27T11:53:51.102Z,101834.97
2023-04-27T11:56:20.136Z,101822.59
2023-04-27T11:58:49.192Z,101835.28
2023-04-27T12:01:24.809Z,101831.09
2023-04-27T12:04:04.378Z,101824.75
2023-04-27T12:06:33.937Z,101831.09
2023-04-27T12:09:05.229Z,101833.38
2023-04-27T12:11:34.594Z,101821.84
2023-04-27T12:14:04.371Z,101827.81
2023-04-27T12:16:33.967Z,101821.34
2023-04-27T12:19:03.134Z,101835.53
2023-04-27T12:21:33.993Z,101831.19
2023-04-27T12:24:04.582Z,101845.47
2023-04-27T12:26:33.707Z,101841.75
2023-04-27T12:29:04.193Z,101843.03
2023-04-27T12:31:33.781Z,101840.13
2023-04-27T12:34:03.042Z,101844.94
2023-04-27T12:36:32.626Z,101844.72
2023-04-27T12:39:14.758Z,101837.47
2023-04-27T12:41:45.652Z,101842.13
2023-04-27T12:44:15.751Z,101846.53
2023-04-27T12:46:46.552Z,101848.50
2023-04-27T12:49:15.956Z,101847.56
2023-04-27T12:51:45.464Z,101844.47
2023-04-27T12:54:16.342Z,101848.78
2023-04-27T12:56:45.784Z,101855.31
2023-04-27T12:59:16.746Z,101857.44
2023-04-27T13:01:46.248Z,101862.16
2023-04-27T13:04:21.840Z,101876.94
2023-04-27T13:06:51.689Z,101864.47
2023-04-27T13:09:22.257Z,101863.50
2023-04-27T13:11:52.727Z,101860.94
2023-04-27T13:14:22.182Z,101861.28
2023-04-27T13:16:51.451Z,101868.06
2023-04-27T13:19:20.548Z,101868.63
2023-04-27T13:21:49.737Z,101864.88
2023-04-27T13:24:19.111Z,101867.72
2023-04-27T13:26:49.566Z,101870.03
2023-04-27T13:29:19.006Z,101863.00
2023-04-27T13:31:48.301Z,101869.06
2023-04-27T13:34:17.970Z,101874.63
2023-04-27T13:36:49.387Z,101873.72
2023-04-27T13:39:18.753Z,101862.63
2023-04-27T13:41:49.300Z,101866.66
2023-04-27T13:44:18.370Z,101860.25
2023-04-27T13:46:47.511Z,101865.81
2023-04-27T13:49:16.597Z,101856.00
2023-04-27T13:51:46.170Z,101849.97
2023-04-27T13:54:15.644Z,101865.09
2023-04-27T13:56:44.928Z,101854.56
2023-04-27T13:59:16.526Z,101842.25
2023-04-27T14:01:45.836Z,101842.66
2023-04-27T14:04:15.036Z,101853.16
2023-04-27T14:06:44.159Z,101847.13
2023-04-27T14:09:13.440Z,101850.09
2023-04-27T14:11:55.166Z,101845.91
2023-04-27T14:14:27.196Z,101837.38
2023-04-27T14:16:56.788Z,101837.59
2023-04-27T14:19:27.329Z,101841.88
2023-04-27T14:21:56.548Z,101833.09
2023-04-27T14:24:25.689Z,101833.56
2023-04-27T14:26:54.799Z,101823.69
2023-04-27T14:29:23.851Z,101828.00
2023-04-27T14:31:54.943Z,101829.38
2023-04-27T14:34:24.338Z,101822.50
2023-04-27T14:36:53.379Z,101828.69
2023-04-27T14:39:23.142Z,101828.88
2023-04-27T14:41:52.221Z,101829.72
2023-04-27T14:44:21.440Z,101830.00
2023-04-27T14:46:50.537Z,101832.75
2023-04-27T14:49:21.657Z,101833.19
2023-04-27T14:51:50.721Z,101828.47
2023-04-27T14:54:19.836Z,101829.00
2023-04-27T14:56:48.888Z,101828.75
2023-04-27T14:59:17.978Z,101827.63
2023-04-27T15:01:47.060Z,101826.56
2023-04-27T15:04:16.494Z,101825.75
2023-04-27T15:06:47.558Z,101830.53
2023-04-27T15:09:16.639Z,101828.81
2023-04-27T15:11:45.734Z,101837.81
2023-04-27T15:14:14.842Z,101832.66
2023-04-27T15:16:43.930Z,101829.56
2023-04-27T15:19:13.230Z,101830.91
2023-04-27T15:21:42.580Z,101831.56
2023-04-27T15:24:13.087Z,101826.81
2023-04-27T15:26:42.259Z,101827.81
2023-04-27T15:29:11.467Z,101827.97
2023-04-27T15:31:40.569Z,101818.59
2023-04-27T15:34:09.827Z,101826.47
2023-04-27T15:36:38.903Z,101812.72
2023-04-27T15:39:09.996Z,101824.06
2023-04-27T15:41:41.139Z,101813.97
2023-04-27T15:44:10.502Z,101811.91
2023-04-27T15:46:39.589Z,101817.50
2023-04-27T15:49:08.690Z,101807.19
2023-04-27T15:51:37.770Z,101811.31
2023-04-27T15:54:06.963Z,101813.31
2023-04-27T15:56:36.084Z,101807.19
2023-04-27T15:59:06.794Z,101808.41
2023-04-27T16:01:36.489Z,101804.88
2023-04-27T16:04:06.192Z,101807.38
2023-04-27T16:06:37.397Z,101806.44
2023-04-27T16:09:10.411Z,101813.19
2023-04-27T16:11:40.105Z,101804.81
2023-04-27T16:14:10.766Z,101808.13
2023-04-27T16:16:40.005Z,101805.53
2023-04-27T16:19:09.852Z,101800.41
2023-04-27T16:21:38.995Z,101801.72
2023-04-27T16:24:08.228Z,101799.84
2023-04-27T16:26:37.305Z,101802.19
2023-04-27T16:29:07.074Z,101794.66
2023-04-27T16:31:37.532Z,101795.78
2023-04-27T16:34:07.361Z,101795.81
2023-04-27T16:36:36.473Z,101800.25
2023-04-27T16:39:05.918Z,101798.31
2023-04-27T16:41:35.057Z,101793.25
2023-04-27T16:44:04.141Z,101794.50
2023-04-27T16:46:33.232Z,101793.31
2023-04-27T16:49:03.769Z,101791.88
2023-04-27T16:51:33.134Z,101794.72
2023-04-27T16:54:02.586Z,101792.88
2023-04-27T16:56:34.406Z,101794.19
2023-04-27T16:59:04.897Z,101796.97
2023-04-27T17:01:34.033Z,101797.47
2023-04-27T17:04:04.588Z,101793.84
2023-04-27T17:06:34.651Z,101795.84
2023-04-27T17:09:04.017Z,101794.50
2023-04-27T17:11:33.130Z,101792.81
2023-04-27T17:14:02.215Z,101797.53
2023-04-27T17:16:31.298Z,101810.72
2023-04-27T17:19:00.562Z,101797.31
2023-04-27T17:21:31.934Z,101806.66
2023-04-27T17:24:01.018Z,101800.28
2023-04-27T17:26:30.126Z,101797.56
2023-04-27T17:29:00.050Z,101801.16
2023-04-27T17:31:29.493Z,101797.00
2023-04-27T17:33:58.611Z,101793.97
2023-04-27T17:36:27.756Z,101790.81
2023-04-27T17:38:58.331Z,101791.41
2023-04-27T17:41:27.535Z,101795.16
2023-04-27T17:43:56.834Z,101789.28
2023-04-27T17:46:26.028Z,101784.34
2023-04-27T17:48:55.182Z,101790.56
2023-04-27T17:51:24.430Z,101785.13
2023-04-27T17:53:53.570Z,101783.44
2023-04-27T17:56:24.187Z,101784.78
2023-04-27T17:58:53.291Z,101781.31
2023-04-27T18:01:22.440Z,101784.69
2023-04-27T18:03:52.611Z,101785.38
2023-04-27T18:06:21.918Z,101787.97
2023-04-27T18:08:51.289Z,101782.00
2023-04-27T18:11:20.938Z,101785.72
2023-04-27T18:13:51.357Z,101779.69
2023-04-27T18:16:20.552Z,101782.94
2023-04-27T18:18:49.694Z,101781.44
2023-04-27T18:21:18.914Z,101790.03
2023-04-27T18:23:48.056Z,101792.50
2023-04-27T18:26:17.287Z,101790.44
2023-04-27T18:28:46.531Z,101803.41
2023-04-27T18:31:17.978Z,101792.84
2023-04-27T18:33:47.941Z,101788.09
2023-04-27T18:36:17.057Z,101791.41
2023-04-27T18:38:48.051Z,101792.03
2023-04-27T18:41:17.267Z,101796.19
2023-04-27T18:43:46.464Z,101789.13
2023-04-27T18:46:17.093Z,101791.09
2023-04-27T18:48:46.302Z,101798.44
2023-04-27T18:51:15.518Z,101798.19
2023-04-27T18:53:44.668Z,101806.53
2023-04-27T18:56:14.603Z,101803.16
2023-04-27T18:58:43.792Z,101810.41
2023-04-27T19:01:21.419Z,101811.69
2023-04-27T19:03:50.897Z,101806.19
2023-04-27T19:06:21.406Z,101812.00
2023-04-27T19:08:51.054Z,101807.81
2023-04-27T19:11:22.274Z,101814.84
2023-04-27T19:13:51.984Z,101819.16
2023-04-27T19:16:24.545Z,101821.94
2023-04-27T19:18:53.717Z,101817.88
2023-04-27T19:21:22.893Z,101821.56
2023-04-27T19:23:52.037Z,101813.84
2023-04-27T19:26:21.334Z,101816.34
2023-04-27T19:28:50.424Z,101814.22
2023-04-27T19:31:20.915Z,101815.22
2023-04-27T19:33:55.168Z,101822.81
2023-04-27T19:36:26.039Z,101818.69
2023-04-27T19:38:55.255Z,101820.13
2023-04-27T19:41:25.116Z,101831.16
2023-04-27T19:43:54.290Z,101831.94
2023-04-27T19:46:26.303Z,101835.25
2023-04-27T19:48:55.542Z,101827.06
2023-04-27T19:51:24.992Z,101831.56
2023-04-27T19:53:54.093Z,101832.25
2023-04-27T19:56:23.241Z,101830.94
2023-04-27T19:58:52.292Z,101828.56
2023-04-27T20:01:21.955Z,101829.63
2023-04-27T20:03:53.443Z,101814.25
2023-04-27T20:06:22.986Z,101826.47
2023-04-27T20:08:52.071Z,101817.13
2023-04-27T20:11:21.303Z,101823.13
2023-04-27T20:13:50.455Z,101823.56
2023-04-27T20:16:19.853Z,101828.97
2023-04-27T20:18:49.650Z,101832.16
2023-04-27T20:21:21.446Z,101827.84
2023-04-27T20:23:51.094Z,101828.31
2023-04-27T20:26:20.270Z,101828.56
2023-04-27T20:28:49.619Z,101830.84
2023-04-27T20:31:18.738Z,101829.34
2023-04-27T20:33:47.931Z,101825.06
2023-04-27T20:36:18.423Z,101826.66
2023-04-27T20:38:48.948Z,101820.06
2023-04-27T20:41:18.251Z,101817.03
2023-04-27T20:43:47.410Z,101816.97
2023-04-27T20:46:16.702Z,101811.97
2023-04-27T20:48:47.204Z,101811.81
2023-04-27T20:51:16.316Z,101807.53
2023-04-27T20:53:45.726Z,101805.16
2023-04-27T20:56:16.821Z,101806.59
2023-04-27T20:58:45.952Z,101805.94
2023-04-27T21:01:15.116Z,101805.41
2023-04-27T21:03:44.477Z,101805.59
2023-04-27T21:06:13.744Z,101807.84
2023-04-27T21:08:42.897Z,101805.34
2023-04-27T21:11:12.393Z,101811.16
2023-04-27T21:13:42.945Z,101810.03
2023-04-27T21:16:12.166Z,101806.16
2023-04-27T21:18:41.255Z,101813.03
2023-04-27T21:21:10.631Z,101811.59
2023-04-27T21:23:39.779Z,101810.03
2023-04-27T21:26:09.397Z,101803.00
2023-04-27T21:28:38.466Z,101807.09
2023-04-27T21:31:09.046Z,101806.25
2023-04-27T21:33:38.650Z,101808.91
2023-04-27T21:36:08.239Z,101805.81
2023-04-27T21:38:37.306Z,101807.03
2023-04-27T21:41:06.435Z,101811.19
2023-04-27T21:43:35.717Z,101810.22
2023-04-27T21:46:04.774Z,101799.75
2023-04-27T21:48:35.411Z,101810.09
2023-04-27T21:51:04.665Z,101805.25
2023-04-27T21:53:33.794Z,101807.22
2023-04-27T21:56:02.970Z,101802.16
2023-04-27T21:58:32.040Z,101794.78
2023-04-27T22:01:01.364Z,101799.44
2023-04-27T22:03:30.837Z,101786.56
2023-04-27T22:06:01.438Z,101791.03
2023-04-27T22:08:31.012Z,101784.94
2023-04-27T22:11:00.167Z,101790.00
2023-04-27T22:13:29.454Z,101788.31
2023-04-27T22:15:58.520Z,101786.22
2023-04-27T22:18:27.718Z,101782.19
2023-04-27T22:20:58.190Z,101782.84
2023-04-27T22:23:31.646Z,101779.19
2023-04-27T22:26:00.995Z,101777.56
2023-04-27T22:28:30.768Z,101782.59
2023-04-27T22:31:01.111Z,101782.66
2023-04-27T22:33:30.179Z,101782.00
2023-04-27T22:35:59.640Z,101777.56
2023-04-27T22:38:30.322Z,101787.88
2023-04-27T22:40:59.423Z,101784.94
2023-04-27T22:43:28.557Z,101782.34
2023-04-27T22:45:57.610Z,101775.75
2023-04-27T22:48:27.152Z,101775.50
2023-04-27T22:50:56.224Z,101770.06
2023-04-27T22:53:25.341Z,101771.25
2023-04-27T22:55:55.817Z,101767.53
2023-04-27T22:58:24.891Z,101775.19
2023-04-27T23:00:54.046Z,101764.78
2023-04-27T23:03:23.645Z,101770.00
2023-04-27T23:05:53.540Z,101760.72
2023-04-27T23:08:24.813Z,101756.34
2023-04-27T23:10:56.217Z,101757.47
2023-04-27T23:13:26.735Z,101765.91
2023-04-27T23:15:55.849Z,101760.56
2023-04-27T23:18:24.973Z,101757.34
2023-04-27T23:20:55.585Z,101757.47
2023-04-27T23:23:24.750Z,101755.72
2023-04-27T23:25:55.167Z,101748.06
2023-04-27T23:28:24.211Z,101754.81
2023-04-27T23:30:56.663Z,101752.00
2023-04-27T23:33:25.756Z,101749.75
2023-04-27T23:35:56.136Z,101748.06
2023-04-27T23:38:25.393Z,101743.78
2023-04-27T23:40:55.792Z,101742.31
2023-04-27T23:43:24.878Z,101736.44
2023-04-27T23:45:54.142Z,101742.03
2023-04-27T23:48:23.267Z,101737.59
2023-04-27T23:51:00.900Z,101737.03
2023-04-27T23:53:30.337Z,101733.69
2023-04-27T23:56:01.005Z,101732.53
2023-04-27T23:58:30.235Z,101730.25
